Pagrindinis puslapis
METAR-TAF:

METAR-TAF

Oro uostai :

Gvajakilis, Ekvadoras

platuma: 02-09S, ilguma: 079-53W, Aukštis: 4 m

Dabartinis oras

Ataskaita buvo paskelbta 25 minutes, ne 08:00 UTC
Vėjas 9 kt iš Pietų/Pietvakarių
Temperatūra 20°C
Drėgmė 83%
Slėgis 1011 hPa
Matomumas 10 km arba daugiau
Mažai debesys ne aukštis 1000 ft

METAR: SEGU 210800Z 20009KT 9999 FEW010 20/17 Q1011 NOSIG RMK A2987

Laikas: 03:25 (08:25 UTC)

Prognozė

Ataskaita buvo paskelbta 4 valandos ir 15 minutes, ne 04:10 UTC
Prognozė galioja nuo 21 metu 06 UTC su 22 metu 06 UTC
Vėjas 8 kt iš Pietvakarių
Matomumas 10 km arba daugiau
Mažai debesys ne aukštis 3000 ft
Tapsmas
nuo 21 metu 16 UTC su 21 metu 18 UTC
Vėjas 8 kt iš Pietų/Pietryčių
Išsisklaidę debesys ne aukštis 3000 ft
Išsisklaidę debesys ne aukštis 10000 ft
Tapsmas
nuo 21 metu 22 UTC su 21 metu 24 UTC
Vėjas 12 kt iš Pietvakarių
Mažai debesys ne aukštis 2300 ft

TAF: SEGU 210410Z 2106/2206 22008KT 9999 FEW030 BECMG 2116/2118 15008KT SCT030 SCT100 BECMG 2122/2124 22012KT FEW023 TX29/2120Z TN21/2121Z

Orai ataskaitas ir orų prognozės (METAR, TAF).

turimą stotys yra geltonos ir raudonos taškus žemėlapyje.

Perkelti pele per norėdami pamatyti stoties vardą.

Tada spustelėkite, norėdami matyti oro stebėjimo ir prognozės.

Norėdami pakeisti žemėlapį: spustelėkite ant žalios mygtukų su juodo kryžiaus žemyn,; žalią mygtuką su brūkšneliu, jei norite nutolinti; arba žalių rodyklių gretimoms žemėlapius.


METAR-TAF: